Time;durP1;ratioP1;P1;durP2;ratioP2;P2;SDS_P1;SDS_P2;PMS_P1;PMS_P2;Temp;Humidity;BMP_temperature;BMP_pressure;BME280_temperature;BME280_humidity;BME280_pressure;Samples;Min_cycle;Max_cycle;Signal;HPM_P1;HPM_P2
2022/04/24 00:01:27;;;;;;;7.07;5.87;;;;;;;-146.64;80.50;39096.28;4988801;28;20033;-78
2022/04/24 00:03:53;;;;;;;6.53;5.60;;;;;;;-146.64;81.09;39067.66;4994808;28;20014;-79
2022/04/24 00:06:19;;;;;;;10.73;5.75;;;;;;;-146.64;80.66;39067.66;4979512;28;20048;-78
2022/04/24 00:08:44;;;;;;;10.33;6.03;;;;;;;-146.64;79.87;39108.56;5011806;28;20037;-78
2022/04/24 00:11:09;;;;;;;6.72;5.80;;;;;;;-146.64;79.87;39084.00;4998113;28;20097;-78
2022/04/24 00:13:38;;;;;;;7.23;5.67;;;;;;;-146.64;80.18;39108.56;5024348;28;20033;-77
2022/04/24 00:16:05;;;;;;;7.53;5.72;;;;;;;-146.64;79.50;39067.66;4982240;28;20050;-77
2022/04/24 00:18:31;;;;;;;11.50;6.75;;;;;;;-146.64;80.40;39088.09;4993002;28;20139;-77
2022/04/24 00:20:56;;;;;;;6.77;5.70;;;;;;;-146.64;80.79;39096.28;5016957;28;20033;-79
2022/04/24 00:23:22;;;;;;;7.93;6.33;;;;;;;-146.64;81.05;38998.06;5023075;28;20038;-79
2022/04/24 00:25:47;;;;;;;10.38;6.63;;;;;;;-146.64;80.10;39067.66;5009192;28;20041;-80
2022/04/24 00:28:13;;;;;;;9.68;6.00;;;;;;;-146.64;80.50;39092.19;4993635;28;20389;-77
2022/04/24 00:30:38;;;;;;;8.17;6.23;;;;;;;-146.64;80.49;39079.91;4993374;28;20395;-77
2022/04/24 00:33:07;;;;;;;9.40;5.82;;;;;;;-146.64;80.51;39106.53;5010913;28;20025;-77
2022/04/24 00:35:32;;;;;;;6.82;6.10;;;;;;;-146.64;80.56;39096.28;4996644;28;20122;-77
2022/04/24 00:37:57;;;;;;;7.37;5.77;;;;;;;-146.64;81.01;39092.19;4997392;28;20112;-77
2022/04/24 00:40:23;;;;;;;9.20;5.68;;;;;;;-146.64;80.91;39100.38;5027089;28;20044;-77
2022/04/24 00:42:49;;;;;;;8.25;5.53;;;;;;;-146.64;80.50;39084.00;5014514;28;20030;-78
2022/04/24 00:45:14;;;;;;;10.53;6.20;;;;;;;-146.64;80.98;39088.09;4988083;28;20026;-77
2022/04/24 00:47:41;;;;;;;8.83;6.33;;;;;;;-146.64;82.21;39112.66;5014869;28;20151;-77
2022/04/24 00:50:07;;;;;;;9.23;5.53;;;;;;;-146.64;82.62;39081.97;4989087;28;20026;-77
2022/04/24 00:52:33;;;;;;;6.47;5.70;;;;;;;-146.64;82.49;39112.66;4986317;28;20120;-78
2022/04/24 00:54:58;;;;;;;6.57;5.87;;;;;;;-146.64;83.24;39120.84;4991438;28;20029;-77
2022/04/24 00:57:23;;;;;;;10.75;6.57;;;;;;;-146.64;83.39;39090.16;4996031;28;20021;-77
2022/04/24 00:59:49;;;;;;;8.47;5.80;;;;;;;-146.64;83.80;39137.22;4992263;28;20041;-77
2022/04/24 01:02:14;;;;;;;7.90;5.72;;;;;;;-146.64;84.17;39110.63;4992883;28;20477;-75
2022/04/24 01:04:39;;;;;;;10.40;5.83;;;;;;;-146.64;84.58;39141.31;5008053;28;20129;-76
2022/04/24 01:07:05;;;;;;;8.88;5.43;;;;;;;-146.64;84.88;39120.84;5017544;28;20132;-76
2022/04/24 01:09:35;;;;;;;6.97;6.27;;;;;;;-146.64;85.39;39110.63;4999090;28;20035;-76
2022/04/24 01:12:01;;;;;;;9.30;6.15;;;;;;;-146.64;86.09;39139.28;4992066;28;20110;-77
2022/04/24 01:14:27;;;;;;;6.83;6.13;;;;;;;-146.64;85.91;39100.38;4991928;28;20440;-76
2022/04/24 01:16:53;;;;;;;7.50;5.93;;;;;;;-146.64;86.81;39143.38;5000281;28;20029;-77
2022/04/24 01:19:19;;;;;;;9.80;6.03;;;;;;;-146.64;86.36;39116.75;4980449;28;20021;-77
2022/04/24 01:21:45;;;;;;;9.60;6.10;;;;;;;-146.64;86.90;39157.69;4989340;28;20030;-77
2022/04/24 01:24:12;;;;;;;7.13;6.00;;;;;;;-146.64;86.73;39163.81;5001355;28;20034;-76
2022/04/24 01:26:38;;;;;;;8.00;6.25;;;;;;;-146.64;86.81;39131.09;5006750;28;20477;-75
2022/04/24 01:29:04;;;;;;;16.03;6.87;;;;;;;-146.64;86.74;39145.41;4992292;28;20049;-75
2022/04/24 01:31:30;;;;;;;7.32;6.00;;;;;;;-146.64;87.29;39088.09;5010341;28;20026;-77
2022/04/24 01:33:56;;;;;;;7.55;5.82;;;;;;;-146.64;87.65;39129.03;5015082;28;20129;-77
2022/04/24 01:36:21;;;;;;;12.32;6.18;;;;;;;-146.64;87.31;39124.94;4999674;28;20554;-75
2022/04/24 01:38:46;;;;;;;9.35;6.70;;;;;;;-146.64;87.44;39124.94;4993266;28;20460;-75
2022/04/24 01:41:12;;;;;;;8.07;6.40;;;;;;;-146.64;87.71;39118.81;5012761;28;20572;-75
2022/04/24 01:43:37;;;;;;;8.13;6.57;;;;;;;-146.64;88.37;39202.72;4997718;28;20029;-76
2022/04/24 01:46:06;;;;;;;7.70;6.70;;;;;;;-146.64;88.69;39161.78;4986388;28;20033;-77
2022/04/24 01:48:33;;;;;;;7.00;6.30;;;;;;;-146.64;88.45;39129.03;4981762;28;20504;-77
2022/04/24 01:50:59;;;;;;;7.22;6.00;;;;;;;-146.64;89.05;39161.78;5005767;28;20029;-77
2022/04/24 01:53:24;;;;;;;8.25;6.63;;;;;;;-146.64;89.01;39112.66;5009447;28;20603;-76
2022/04/24 01:55:50;;;;;;;8.40;6.53;;;;;;;-146.64;89.71;39137.22;5003265;28;20038;-76
2022/04/24 01:58:15;;;;;;;11.00;6.47;;;;;;;-146.64;89.92;39196.56;5012871;28;20042;-77
2022/04/24 02:00:41;;;;;;;11.82;7.28;;;;;;;-146.64;90.05;39172.00;4994461;28;20026;-77
2022/04/24 02:03:06;;;;;;;10.23;7.17;;;;;;;-146.64;90.57;39182.25;5022170;28;20036;-76
2022/04/24 02:05:31;;;;;;;11.25;7.93;;;;;;;-146.64;91.00;39215.00;5014846;28;20033;-77
2022/04/24 02:07:56;;;;;;;10.60;6.90;;;;;;;-146.64;91.12;39198.63;4993726;28;20466;-78
2022/04/24 02:10:22;;;;;;;10.93;7.78;;;;;;;-146.64;90.88;39141.31;4990696;28;20148;-77
2022/04/24 02:12:47;;;;;;;9.63;7.20;;;;;;;-146.64;91.45;39157.69;4996526;28;20026;-77
2022/04/24 02:15:12;;;;;;;10.70;7.30;;;;;;;-146.64;92.68;39169.97;5013090;28;20066;-78
2022/04/24 02:17:38;;;;;;;8.13;7.00;;;;;;;-146.64;92.81;39206.81;4995841;28;20492;-76
2022/04/24 02:20:04;;;;;;;8.07;7.15;;;;;;;-146.64;92.82;39169.97;5009635;28;20041;-76
2022/04/24 02:22:33;;;;;;;8.27;7.32;;;;;;;-146.64;92.91;39202.72;5022026;28;20386;-77
2022/04/24 02:24:59;;;;;;;9.98;7.03;;;;;;;-146.64;94.14;39172.00;4998633;28;20207;-78
2022/04/24 02:27:24;;;;;;;8.18;7.38;;;;;;;-146.64;94.91;39194.53;4980234;28;20057;-76
2022/04/24 02:29:49;;;;;;;9.02;6.95;;;;;;;-146.64;94.76;39223.19;5027291;28;20048;-78
2022/04/24 02:32:15;;;;;;;7.83;6.93;;;;;;;-146.64;95.72;39219.09;5007838;28;20116;-77
2022/04/24 02:34:40;;;;;;;8.47;7.47;;;;;;;-146.64;97.02;39206.81;4991451;28;20021;-77
2022/04/24 02:37:05;;;;;;;7.47;6.78;;;;;;;-146.64;97.94;39235.47;5016736;28;20045;-78
2022/04/24 02:39:31;;;;;;;10.07;7.53;;;;;;;-146.64;98.63;39196.56;4993460;28;20517;-78
2022/04/24 02:41:56;;;;;;;9.27;8.00;;;;;;;-146.64;99.87;39219.09;5011112;28;20057;-78
2022/04/24 02:44:21;;;;;;;10.63;7.57;;;;;;;-146.64;100.00;39247.75;4993626;28;20347;-76
2022/04/24 02:46:47;;;;;;;10.27;8.23;;;;;;;-146.64;100.00;39219.09;5011588;28;20052;-77
2022/04/24 02:49:12;;;;;;;8.82;7.93;;;;;;;-146.64;100.00;39276.38;4996846;28;20065;-77
2022/04/24 02:51:38;;;;;;;10.48;8.80;;;;;;;-146.64;100.00;39217.03;5007493;28;20029;-77
2022/04/24 02:54:03;;;;;;;10.07;7.85;;;;;;;-146.64;100.00;39253.88;5012436;28;20104;-77
2022/04/24 02:56:29;;;;;;;10.15;9.05;;;;;;;-146.64;100.00;39315.28;5019514;28;20030;-78
2022/04/24 02:58:54;;;;;;;9.77;8.48;;;;;;;-146.64;100.00;39337.78;5010117;28;20105;-76
2022/04/24 03:01:21;;;;;;;10.18;9.10;;;;;;;-146.64;100.00;39317.31;5005341;28;20050;-77
2022/04/24 03:03:47;;;;;;;12.05;9.02;;;;;;;-146.64;100.00;39341.88;4993831;28;20021;-76
2022/04/24 03:06:12;;;;;;;11.15;8.63;;;;;;;-146.64;100.00;39325.50;4991606;28;20045;-78
2022/04/24 03:08:38;;;;;;;10.88;8.70;;;;;;;-146.64;100.00;39356.22;5009327;28;20073;-76
2022/04/24 03:11:03;;;;;;;12.02;9.07;;;;;;;-146.64;100.00;39386.91;5018928;28;20048;-77
2022/04/24 03:13:29;;;;;;;14.15;9.60;;;;;;;-146.64;100.00;39337.78;5017630;28;20083;-78
2022/04/24 03:15:54;;;;;;;11.30;9.17;;;;;;;-146.64;100.00;39354.16;5001867;28;20230;-79
2022/04/24 03:18:19;;;;;;;16.55;10.27;;;;;;;-146.64;100.00;39378.72;4995337;28;20037;-78
2022/04/24 03:20:45;;;;;;;17.20;9.75;;;;;;;-146.64;100.00;39399.19;5021001;28;20034;-78
2022/04/24 03:23:10;;;;;;;14.10;10.43;;;;;;;-146.64;100.00;39380.75;5010855;28;20041;-78
2022/04/24 03:25:35;;;;;;;11.90;9.70;;;;;;;-146.64;100.00;39384.84;5001276;28;20410;-77
2022/04/24 03:28:00;;;;;;;15.95;10.50;;;;;;;-146.64;100.00;39468.78;5008328;28;20034;-79
2022/04/24 03:30:26;;;;;;;14.95;11.20;;;;;;;-146.64;100.00;39360.31;5025120;28;20041;-77
2022/04/24 03:32:51;;;;;;;12.73;10.27;;;;;;;-146.64;100.00;39452.41;4993569;28;20382;-78
2022/04/24 03:35:17;;;;;;;14.77;10.47;;;;;;;-146.64;100.00;39485.16;5006481;28;20556;-75
2022/04/24 03:37:43;;;;;;;13.80;10.60;;;;;;;-146.64;100.00;39476.97;4986857;28;20121;-76
2022/04/24 03:40:08;;;;;;;15.40;11.13;;;;;;;-146.64;100.00;39485.16;4976712;28;20022;-78
2022/04/24 03:42:35;;;;;;;14.77;11.68;;;;;;;-146.64;100.00;39472.88;5003947;28;20148;-77
2022/04/24 03:45:01;;;;;;;13.48;10.70;;;;;;;-146.64;100.00;39499.47;4993794;28;20036;-79
2022/04/24 03:47:27;;;;;;;16.45;11.63;;;;;;;-146.64;100.00;39511.75;4983508;28;20029;-76
2022/04/24 03:49:53;;;;;;;15.48;11.70;;;;;;;-146.64;100.00;39538.34;5008573;28;20536;-78
2022/04/24 03:52:18;;;;;;;15.57;11.40;;;;;;;-146.64;100.00;39538.34;5009957;28;20033;-79
2022/04/24 03:54:44;;;;;;;12.70;10.45;;;;;;;-146.64;100.00;39583.38;5009056;28;20028;-78
2022/04/24 03:57:09;;;;;;;14.27;11.25;;;;;;;-146.64;100.00;39603.84;4992872;28;20033;-79
2022/04/24 03:59:35;;;;;;;20.07;11.97;;;;;;;-146.64;100.00;39571.09;4993454;28;20045;-79
2022/04/24 04:02:00;;;;;;;14.40;11.03;;;;;;;-146.64;100.00;39583.38;4993148;28;20076;-77
2022/04/24 04:04:26;;;;;;;15.52;10.50;;;;;;;-146.64;100.00;39575.19;4988775;28;20101;-78
2022/04/24 04:06:52;;;;;;;16.25;10.77;;;;;;;-146.64;100.00;39652.97;5011282;28;20026;-79
2022/04/24 04:09:17;;;;;;;16.98;11.02;;;;;;;-146.64;100.00;39607.94;4991961;28;20547;-77
2022/04/24 04:11:42;;;;;;;13.93;11.50;;;;;;;-146.64;100.00;39652.97;4993153;28;20030;-78
2022/04/24 04:14:08;;;;;;;15.85;10.82;;;;;;;-146.64;100.00;39669.34;4989914;28;20038;-78
2022/04/24 04:16:34;;;;;;;19.50;12.40;;;;;;;-146.64;100.00;39685.72;5012461;28;20029;-78
2022/04/24 04:18:59;;;;;;;14.23;11.82;;;;;;;-146.64;100.00;39698.00;4994055;28;20462;-78
2022/04/24 04:21:24;;;;;;;15.50;11.55;;;;;;;-146.64;100.00;39693.91;5015821;28;20034;-77
2022/04/24 04:23:50;;;;;;;12.82;11.02;;;;;;;-146.64;100.00;39679.59;5008443;28;20030;-79
2022/04/24 04:26:17;;;;;;;15.75;11.52;;;;;;;-146.64;100.00;39640.69;5013540;28;20069;-78
2022/04/24 04:28:43;;;;;;;;;;;;;;;-146.64;100.00;39677.53;4997477;28;20038;-77
2022/04/24 04:31:08;;;;;;;15.02;11.32;;;;;;;-146.64;100.00;39726.66;5005363;28;19918;-78
2022/04/24 04:33:34;;;;;;;15.65;10.60;;;;;;;-146.64;100.00;39722.56;5006742;28;20022;-78
2022/04/24 04:35:59;;;;;;;18.10;11.52;;;;;;;-146.64;100.00;39702.09;4996640;28;20026;-78
2022/04/24 04:38:25;;;;;;;18.88;10.77;;;;;;;-146.64;100.00;39747.13;5007282;28;20477;-78
2022/04/24 04:40:50;;;;;;;18.50;10.80;;;;;;;-146.64;100.00;39761.47;4992207;28;20121;-78
2022/04/24 04:43:15;;;;;;;15.32;11.05;;;;;;;-146.64;100.00;39755.31;4995184;28;20088;-78
2022/04/24 04:45:41;;;;;;;16.15;10.73;;;;;;;-146.64;100.00;39747.13;4993068;28;20125;-78
2022/04/24 04:48:07;;;;;;;14.63;10.07;;;;;;;-146.64;100.00;39726.66;5007843;28;20041;-78
2022/04/24 04:50:32;;;;;;;13.53;10.80;;;;;;;-146.64;100.00;39704.16;4985139;28;20036;-77
2022/04/24 04:52:57;;;;;;;16.23;10.98;;;;;;;-146.64;100.00;39693.91;4994330;28;20034;-78
2022/04/24 04:55:23;;;;;;;12.90;9.85;;;;;;;-146.64;100.00;39693.91;4992432;28;20219;-77
2022/04/24 04:57:48;;;;;;;11.52;9.85;;;;;;;-146.64;100.00;39681.63;5005625;28;20117;-77
2022/04/24 05:00:14;;;;;;;12.75;9.68;;;;;;;-146.64;100.00;39640.69;4995501;28;20040;-79
2022/04/24 05:02:40;;;;;;;13.80;9.98;;;;;;;-146.64;100.00;39646.84;4998238;28;20040;-78
2022/04/24 05:05:07;;;;;;;12.10;9.52;;;;;;;-146.64;100.00;39636.59;5011748;28;20138;-79
2022/04/24 05:07:32;;;;;;;12.00;10.32;;;;;;;-146.64;100.00;39634.56;4985818;28;20102;-77
2022/04/24 05:09:57;;;;;;;16.05;10.23;;;;;;;-146.64;100.00;39636.59;5014198;28;20453;-79
2022/04/24 05:12:27;;;;;;;16.30;9.55;;;;;;;-146.64;100.00;39614.09;5012719;28;20084;-77
2022/04/24 05:14:53;;;;;;;13.18;10.20;;;;;;;-146.64;100.00;39554.72;4991476;28;20030;-78
2022/04/24 05:17:18;;;;;;;14.02;9.95;;;;;;;-146.64;100.00;39560.88;4999348;28;20116;-77
2022/04/24 05:19:43;;;;;;;13.77;9.77;;;;;;;-146.64;100.00;39562.91;5010455;28;20057;-78
2022/04/24 05:22:09;;;;;;;13.98;10.50;;;;;;;-146.64;100.00;39513.81;5007625;28;20033;-79
2022/04/24 05:24:34;;;;;;;15.10;9.82;;;;;;;-146.64;100.00;39491.28;4994814;28;20026;-77
2022/04/24 05:27:01;;;;;;;10.75;9.65;;;;;;;-146.64;100.00;39472.88;4992569;28;20053;-78
2022/04/24 05:29:27;;;;;;;;;;;;;;;-146.64;100.00;39485.16;4999870;28;20021;-79
2022/04/24 05:31:52;;;;;;;10.70;8.50;;;;;;;-146.64;100.00;39407.38;4981856;28;20519;-80
2022/04/24 05:34:17;;;;;;;11.93;9.32;;;;;;;-146.64;100.00;39419.66;5009563;28;20034;-79
2022/04/24 05:36:43;;;;;;;11.13;9.80;;;;;;;-146.64;100.00;39370.53;5016379;28;20033;-80
2022/04/24 05:39:08;;;;;;;15.20;9.40;;;;;;;-146.64;100.00;39321.41;5020552;28;20041;-79
2022/04/24 05:41:33;;;;;;;12.00;9.23;;;;;;;-146.64;100.00;39202.72;4996362;28;20025;-77
2022/04/24 05:43:59;;;;;;;13.50;8.68;;;;;;;-146.64;100.00;39309.13;4991035;28;20041;-80
2022/04/24 05:46:24;;;;;;;14.15;9.57;;;;;;;-146.64;100.00;39276.38;4992742;28;20072;-78
2022/04/24 05:48:49;;;;;;;11.25;8.75;;;;;;;-146.64;100.00;39245.69;4976020;28;20057;-77
2022/04/24 05:51:15;;;;;;;12.93;8.82;;;;;;;-146.64;100.00;39231.38;5007022;28;20113;-77
2022/04/24 05:53:40;;;;;;;18.02;9.02;;;;;;;-146.64;100.00;39243.66;4981621;28;20045;-78
2022/04/24 05:56:05;;;;;;;10.68;8.10;;;;;;;-146.64;100.00;39221.13;5019324;28;20034;-79
2022/04/24 05:58:31;;;;;;;10.30;8.23;;;;;;;-146.64;100.00;39190.44;4980642;28;20029;-79
2022/04/24 06:00:56;;;;;;;10.32;7.93;;;;;;;-146.64;100.00;39153.59;5032366;28;20074;-78
2022/04/24 06:03:21;;;;;;;10.82;7.97;;;;;;;-146.64;100.00;39118.81;5010239;28;20045;-78
2022/04/24 06:05:48;;;;;;;10.57;8.55;;;;;;;-146.64;100.00;39124.94;5012552;28;20034;-78
2022/04/24 06:08:14;;;;;;;10.68;7.47;;;;;;;-146.64;100.00;39143.38;5010768;28;20021;-80
2022/04/24 06:10:39;;;;;;;12.63;8.50;;;;;;;-146.64;100.00;39137.22;5008045;28;20029;-79
2022/04/24 06:13:05;;;;;;;12.82;8.70;;;;;;;-146.64;100.00;39118.81;4978138;28;20063;-78
2022/04/24 06:15:30;;;;;;;10.07;7.70;;;;;;;-146.64;100.00;39108.56;5025131;28;20032;-78
2022/04/24 06:17:58;;;;;;;11.98;7.80;;;;;;;-146.64;100.00;39063.56;5018564;28;20038;-80
2022/04/24 06:20:25;;;;;;;10.35;8.25;;;;;;;-146.64;100.00;39114.72;5005264;28;20039;-77
2022/04/24 06:22:52;;;;;;;9.32;7.50;;;;;;;-146.64;100.00;39104.47;4996713;28;20151;-78
2022/04/24 06:25:19;;;;;;;9.88;7.43;;;;;;;-146.64;100.00;39096.28;5009290;28;20026;-79
2022/04/24 06:27:46;;;;;;;9.18;7.07;;;;;;;-146.64;100.00;39071.75;5010802;28;20053;-79
2022/04/24 06:30:11;;;;;;;8.25;7.00;;;;;;;-146.64;100.00;39051.28;5005031;28;20053;-79
2022/04/24 06:32:39;;;;;;;8.50;7.65;;;;;;;-146.64;100.00;39034.91;4998371;28;20037;-81
2022/04/24 06:35:05;;;;;;;9.63;6.97;;;;;;;-146.64;100.00;38951.00;5005082;28;20036;-81
2022/04/24 06:37:30;;;;;;;9.38;7.88;;;;;;;-146.64;100.00;39024.66;5000785;28;20120;-80
2022/04/24 06:39:56;;;;;;;11.33;7.57;;;;;;;-146.64;100.00;38924.41;5031670;28;20114;-81
2022/04/24 06:42:22;;;;;;;7.50;6.80;;;;;;;-146.64;100.00;38793.44;5018872;28;20107;-81
2022/04/24 06:44:47;;;;;;;8.77;6.68;;;;;;;-146.64;100.00;38717.72;4990408;28;20026;-81
2022/04/24 06:47:13;;;;;;;9.47;6.83;;;;;;;-146.64;96.13;38613.34;5009498;28;20036;-82
2022/04/24 06:49:38;;;;;;;7.03;6.33;;;;;;;-146.64;91.19;38509.00;5017140;28;20882;-81
2022/04/24 06:52:04;;;;;;;7.07;5.90;;;;;;;-146.64;84.06;38457.84;4993346;28;20021;-81
2022/04/24 06:54:32;;;;;;;6.97;5.93;;;;;;;-146.64;84.70;38449.66;5028682;28;20034;-81
2022/04/24 06:57:01;;;;;;;8.23;6.05;;;;;;;-146.64;81.25;38402.59;5013241;28;20079;-79
2022/04/24 06:59:29;;;;;;;11.13;5.57;;;;;;;-146.64;79.29;38447.63;4991008;28;20021;-81
2022/04/24 07:01:55;;;;;;;8.05;5.82;;;;;;;-146.64;80.90;38472.16;5024276;28;20026;-81
2022/04/24 07:04:20;;;;;;;8.87;6.37;;;;;;;-146.64;77.45;38443.53;4990909;28;20385;-81
2022/04/24 07:06:45;;;;;;;8.00;6.30;;;;;;;-146.64;80.02;38480.34;5012643;28;20026;-81
2022/04/24 07:09:11;;;;;;;6.87;5.83;;;;;;;-146.64;78.58;38367.81;5043501;28;20033;-81
2022/04/24 07:11:36;;;;;;;8.33;5.97;;;;;;;-146.64;76.07;38421.00;5029426;28;20056;-81
2022/04/24 07:14:02;;;;;;;7.40;5.73;;;;;;;-146.64;74.53;38363.72;5006298;28;20350;-82
2022/04/24 07:16:28;;;;;;;6.63;5.57;;;;;;;-146.64;76.00;38421.00;5020424;28;20701;-82
2022/04/24 07:18:53;;;;;;;9.53;5.80;;;;;;;-146.64;74.28;38371.91;4995303;28;20034;-81
2022/04/24 07:21:18;;;;;;;9.20;6.27;;;;;;;-146.64;76.83;38441.47;5012355;28;20044;-82
2022/04/24 07:23:43;;;;;;;7.67;6.00;;;;;;;-146.64;75.33;38443.53;5024008;28;20101;-80
2022/04/24 07:26:11;;;;;;;6.57;5.97;;;;;;;-146.64;72.76;38380.09;5024222;28;20022;-81
2022/04/24 07:28:37;;;;;;;8.00;5.78;;;;;;;-146.64;73.21;38371.91;5010759;28;20117;-82
2022/04/24 07:31:02;;;;;;;7.67;6.37;;;;;;;-146.64;73.09;38490.59;5024014;28;20029;-81
2022/04/24 07:33:28;;;;;;;15.27;5.70;;;;;;;-146.64;75.08;38369.84;5040456;28;20025;-81
2022/04/24 07:35:53;;;;;;;7.77;6.23;;;;;;;-146.64;72.79;38380.09;5018444;28;20263;-81
2022/04/24 07:38:18;;;;;;;11.93;6.33;;;;;;;-146.64;73.31;38437.38;5019667;28;20041;-81
2022/04/24 07:40:44;;;;;;;8.30;6.50;;;;;;;-146.64;73.75;38453.75;5027182;28;20184;-81
2022/04/24 07:43:13;;;;;;;6.60;6.00;;;;;;;-146.64;73.13;38470.13;5040064;28;20707;-80
2022/04/24 07:45:43;;;;;;;8.35;6.45;;;;;;;-146.64;74.13;38496.72;5029966;28;20033;-81
2022/04/24 07:48:11;;;;;;;9.20;6.63;;;;;;;-146.64;75.01;38568.34;5007804;28;20082;-80
2022/04/24 07:50:42;;;;;;;11.38;6.63;;;;;;;-146.64;77.41;38584.72;5013236;28;20009;-81
2022/04/24 07:53:08;;;;;;;7.97;6.43;;;;;;;-146.64;78.51;38551.97;5027682;28;20025;-81
2022/04/24 07:55:34;;;;;;;7.97;6.43;;;;;;;-146.64;78.38;38572.44;5011321;28;20052;-81
2022/04/24 07:58:00;;;;;;;8.40;6.17;;;;;;;-146.64;77.82;38580.63;5019102;28;20069;-81
2022/04/24 08:00:30;;;;;;;13.77;6.87;;;;;;;-146.64;77.23;38578.56;5032351;28;20022;-81
2022/04/24 08:02:57;;;;;;;10.10;6.32;;;;;;;-146.64;76.98;38543.78;5002399;28;20188;-82
2022/04/24 08:05:30;;;;;;;6.78;6.15;;;;;;;-146.64;78.44;38605.16;5015880;28;20034;-81
2022/04/24 08:07:58;;;;;;;10.38;6.15;;;;;;;-146.64;79.47;38480.34;5023737;28;20169;-82
2022/04/24 08:10:27;;;;;;;7.30;6.00;;;;;;;-146.64;77.20;38498.75;4999681;28;20017;-80
2022/04/24 08:12:53;;;;;;;6.30;5.70;;;;;;;-146.64;76.80;38509.00;5015889;28;20028;-81
2022/04/24 08:15:18;;;;;;;10.90;6.77;;;;;;;-146.64;77.53;38527.41;4989889;28;20093;-81
2022/04/24 08:17:44;;;;;;;10.07;6.27;;;;;;;-146.64;75.86;38494.69;5015077;28;20060;-81
2022/04/24 08:20:12;;;;;;;10.17;7.00;;;;;;;-146.64;74.61;38509.00;4995626;28;20037;-80
2022/04/24 08:22:42;;;;;;;7.45;6.45;;;;;;;-146.64;75.40;38484.44;5000963;28;20410;-80
2022/04/24 08:25:10;;;;;;;10.90;6.50;;;;;;;-146.64;73.80;38547.88;4993297;28;20065;-80
2022/04/24 08:27:35;;;;;;;7.40;6.70;;;;;;;-146.64;71.87;38539.69;5008644;28;20053;-80
2022/04/24 08:30:01;;;;;;;7.40;6.13;;;;;;;-146.64;73.13;38506.94;4991236;28;20068;-81
2022/04/24 08:32:27;;;;;;;11.27;7.10;;;;;;;-146.64;73.43;38517.19;5023039;28;20034;-80
2022/04/24 08:34:52;;;;;;;6.90;6.23;;;;;;;-146.64;74.10;38478.31;5011229;28;20025;-81
2022/04/24 08:37:17;;;;;;;9.13;6.77;;;;;;;-146.64;72.95;38494.69;5013440;28;20141;-80
2022/04/24 08:39:43;;;;;;;10.13;6.73;;;;;;;-146.64;71.93;38445.56;4988136;28;20034;-80
2022/04/24 08:42:09;;;;;;;10.30;6.53;;;;;;;-146.64;73.01;38433.28;5020025;28;20037;-81
2022/04/24 08:44:36;;;;;;;7.32;6.63;;;;;;;-146.64;71.79;38390.31;5015259;28;20044;-79
2022/04/24 08:47:01;;;;;;;8.32;6.53;;;;;;;-146.64;71.09;38359.63;5023113;28;20484;-81
2022/04/24 08:49:27;;;;;;;7.07;6.37;;;;;;;-146.64;72.44;38376.00;5008165;28;20037;-77
2022/04/24 08:51:53;;;;;;;7.83;6.53;;;;;;;-146.64;71.77;38406.69;5011234;28;20037;-80
2022/04/24 08:54:18;;;;;;;11.70;7.13;;;;;;;-146.64;70.45;38392.38;5013057;28;20030;-79
2022/04/24 08:56:43;;;;;;;9.53;6.90;;;;;;;-146.64;69.89;38359.63;4983155;28;20862;-79
2022/04/24 08:59:11;;;;;;;7.30;5.77;;;;;;;-146.64;69.80;38390.31;5005918;28;20076;-79
2022/04/24 09:01:44;;;;;;;8.40;6.57;;;;;;;-146.64;69.92;38347.34;5018206;28;20048;-79
2022/04/24 09:04:12;;;;;;;8.95;6.68;;;;;;;-146.64;68.92;38353.50;5001726;28;20045;-79
2022/04/24 09:06:38;;;;;;;8.00;5.75;;;;;;;-146.64;66.02;38339.16;4993477;28;20041;-77
2022/04/24 09:09:05;;;;;;;8.77;6.53;;;;;;;-146.64;64.61;38253.22;5003076;28;20044;-79
2022/04/24 09:11:30;;;;;;;9.38;6.15;;;;;;;-146.64;65.78;38273.69;5020199;28;20160;-80
2022/04/24 09:16:46;;;;;;;10.27;7.15;;;;;;;-146.64;64.86;38290.06;5026311;28;20412;-78
2022/04/24 09:19:30;;;;;;;9.52;6.18;;;;;;;-146.64;65.08;38302.34;5025708;28;20117;-78
2022/04/24 09:22:06;;;;;;;10.63;6.57;;;;;;;-146.64;64.16;38328.94;4991733;28;20061;-78
2022/04/24 09:24:45;;;;;;;9.55;6.13;;;;;;;-146.64;62.38;38281.88;5012865;28;20572;-78
2022/04/24 09:27:21;;;;;;;8.07;5.78;;;;;;;-146.64;62.26;38236.88;5007583;28;20496;-79
2022/04/24 09:29:55;;;;;;;9.93;7.45;;;;;;;-146.64;61.58;38236.88;5011494;28;20143;-78
2022/04/24 09:32:22;;;;;;;8.25;6.63;;;;;;;-146.64;63.02;38251.19;4997086;28;20022;-79
2022/04/24 09:34:47;;;;;;;;;;;;;;;-146.64;62.55;38204.13;4998985;28;20025;-78
2022/04/24 09:37:13;;;;;;;7.43;6.72;;;;;;;-146.64;63.62;38118.19;5021158;28;19965;-78
2022/04/24 09:39:38;;;;;;;9.90;6.23;;;;;;;-146.64;62.70;38126.38;5023049;28;20029;-78
2022/04/24 09:42:09;;;;;;;7.13;6.43;;;;;;;-146.64;61.86;38144.78;5009973;28;20131;-79
2022/04/24 09:44:44;;;;;;;10.32;6.72;;;;;;;-146.64;61.48;38179.56;4994746;28;20033;-78
2022/04/24 09:47:11;;;;;;;8.52;6.20;;;;;;;-146.64;62.38;38187.75;5002996;28;20030;-78
2022/04/24 09:49:40;;;;;;;8.07;6.60;;;;;;;-146.64;58.89;38142.75;5013225;28;20033;-78
2022/04/24 09:52:11;;;;;;;10.25;6.97;;;;;;;-146.64;59.63;38101.81;5027822;28;20092;-78
2022/04/24 09:54:38;;;;;;;10.45;6.85;;;;;;;-146.64;60.80;38167.31;4996753;28;20132;-78
2022/04/24 09:57:04;;;;;;;9.75;6.88;;;;;;;-146.64;61.10;38130.47;5020331;28;20022;-79
2022/04/24 09:59:29;;;;;;;14.60;7.07;;;;;;;-146.64;60.62;38011.81;5018503;28;20118;-78
2022/04/24 10:01:55;;;;;;;7.87;6.53;;;;;;;-146.64;58.73;38126.38;5023265;28;20084;-77
2022/04/24 10:04:20;;;;;;;7.77;6.57;;;;;;;-146.64;60.59;38124.34;4996833;28;20065;-77
2022/04/24 10:06:46;;;;;;;11.60;7.40;;;;;;;-146.64;59.72;38081.38;5007308;28;20170;-78
2022/04/24 10:09:13;;;;;;;10.33;7.00;;;;;;;-146.64;58.35;38015.91;5009466;28;20357;-80
2022/04/24 10:11:39;;;;;;;10.18;6.97;;;;;;;-146.64;57.97;38001.56;5017741;28;20133;-78
2022/04/24 10:14:07;;;;;;;10.60;6.55;;;;;;;-146.64;57.66;37942.25;4986442;28;20473;-79
2022/04/24 10:16:39;;;;;;;7.82;7.03;;;;;;;-146.64;54.83;38065.00;4985172;28;20065;-79
2022/04/24 10:19:15;;;;;;;9.63;6.32;;;;;;;-146.64;55.81;38054.78;4987992;28;20030;-78
2022/04/24 10:22:01;;;;;;;10.50;6.63;;;;;;;-146.64;54.54;38048.63;5010932;28;20059;-79
2022/04/24 10:24:37;;;;;;;8.27;6.30;;;;;;;-146.64;55.43;37983.16;5004900;28;20317;-78
2022/04/24 10:27:03;;;;;;;12.18;6.40;;;;;;;-146.64;54.17;37909.50;5009753;28;20025;-77
2022/04/24 10:29:29;;;;;;;8.00;5.20;;;;;;;-146.64;52.71;37897.25;5003574;28;20432;-78
2022/04/24 10:31:54;;;;;;;10.07;5.90;;;;;;;-146.64;51.70;37727.44;5020294;28;20038;-79
2022/04/24 10:34:20;;;;;;;7.47;5.90;;;;;;;-146.64;50.22;37874.72;5004824;28;20026;-78
2022/04/24 10:37:12;;;;;;;10.23;5.65;;;;;;;-146.64;50.83;37872.69;4996990;28;20022;-77
2022/04/24 10:39:39;;;;;;;8.10;5.93;;;;;;;-146.64;47.27;37929.97;4996056;28;20044;-79
2022/04/24 10:42:12;;;;;;;6.63;5.70;;;;;;;-146.64;48.65;37905.41;5008579;28;20029;-78
2022/04/24 10:44:49;;;;;;;6.65;5.32;;;;;;;-146.64;47.10;37839.94;4989037;28;20818;-78
2022/04/24 10:47:15;;;;;;;7.30;5.18;;;;;;;-146.64;47.97;37844.03;5000905;28;20055;-78
2022/04/24 10:49:40;;;;;;;10.83;5.40;;;;;;;-146.64;48.98;37754.03;5018964;28;20041;-80
2022/04/24 10:52:06;;;;;;;10.13;5.90;;;;;;;-146.64;47.06;37743.81;5011250;28;20025;-79
2022/04/24 10:54:34;;;;;;;6.18;5.57;;;;;;;-146.64;48.09;37839.94;5005786;28;20048;-78
2022/04/24 10:57:00;;;;;;;10.38;5.50;;;;;;;-146.64;47.31;37819.50;5008185;28;20042;-79
2022/04/24 10:59:26;;;;;;;6.47;5.40;;;;;;;-146.64;47.40;37749.94;4987248;28;20048;-79
2022/04/24 11:01:54;;;;;;;14.98;5.15;;;;;;;-146.64;47.01;37741.75;5014046;28;20025;-80
2022/04/24 11:04:20;;;;;;;6.97;5.65;;;;;;;-146.64;46.06;37725.38;5002043;28;20548;-78
2022/04/24 11:06:57;;;;;;;5.45;4.95;;;;;;;-146.64;46.88;37921.78;4996686;28;20056;-79
2022/04/24 11:09:23;;;;;;;8.05;5.05;;;;;;;-146.64;47.05;37794.94;5008056;28;20128;-79